Longford, Kansas
Current Conditions -  °F | °C
As of 3:53 AM on Saturday 22 Nov 2014 (Local Time) from KSLN Reporting Station
Haze Haze  
Wind Chill: 37°   Ceiling: 300
Heat Index: 41°   Visibility: 4mi
Dew Point: 40°   Wind: 6mph
Humidity: 96%   Direction: 190°S
Pressure: 29.98"   Gusts: NA
Location:  39.17°N, 97.33°W
Report Text: KSLN 220953Z AUTO 19005KT 4SM BR OVC003 05/04 A2998 RMK AO2 SLP159 T00500044
Loading
Personal Weather Stations






























Interactive Weather Map New forecast layout! Learn more

10-Day Weather Forecast

Advertisements
Track Severe Weather on mobile